Time;durP1;ratioP1;P1;durP2;ratioP2;P2;SDS_P1;SDS_P2;PMS_P1;PMS_P2;Temp;Humidity;BMP_temperature;BMP_pressure;BME280_temperature;BME280_humidity;BME280_pressure;Samples;Min_cycle;Max_cycle;Signal;HPM_P1;HPM_P2
2023/05/17 00:00:44;;;;;;;8.90;2.23;;;10.10;1.00;;;;;;4978334;28;20219;-74
2023/05/17 00:03:10;;;;;;;3.40;2.10;;;10.10;1.00;;;;;;4978947;28;20215;-71
2023/05/17 00:05:35;;;;;;;3.33;2.03;;;10.10;1.00;;;;;;4977634;28;20289;-73
2023/05/17 00:08:01;;;;;;;4.47;2.10;;;10.10;1.00;;;;;;4977845;28;20402;-72
2023/05/17 00:10:26;;;;;;;9.20;2.10;;;10.10;1.00;;;;;;4987538;28;20187;-73
2023/05/17 00:12:52;;;;;;;3.20;1.77;;;10.00;1.00;;;;;;4989226;28;20673;-71
2023/05/17 00:15:17;;;;;;;3.47;2.07;;;9.90;1.00;;;;;;4978759;28;20191;-73
2023/05/17 00:17:43;;;;;;;7.53;2.43;;;9.90;1.00;;;;;;4977522;28;20647;-72
2023/05/17 00:20:09;;;;;;;6.90;3.10;;;9.80;1.00;;;;;;4978657;28;20180;-72
2023/05/17 00:22:35;;;;;;;4.53;2.10;;;9.90;1.00;;;;;;4994721;28;20618;-73
2023/05/17 00:25:00;;;;;;;6.03;2.47;;;9.90;1.00;;;;;;4992940;28;20187;-72
2023/05/17 00:27:26;;;;;;;3.33;2.30;;;9.80;1.00;;;;;;4974529;28;20294;-73
2023/05/17 00:29:51;;;;;;;4.40;2.20;;;10.60;1.00;;;;;;4975785;28;20188;-72
2023/05/17 00:32:17;;;;;;;4.90;2.53;;;9.80;1.00;;;;;;4972023;28;20188;-72
2023/05/17 00:34:42;;;;;;;5.13;2.20;;;9.70;1.00;;;;;;4971944;28;20246;-72
2023/05/17 00:37:08;;;;;;;2.67;2.10;;;9.70;1.00;;;;;;4983380;28;20199;-73
2023/05/17 00:39:33;;;;;;;4.63;2.40;;;9.70;1.00;;;;;;4980958;28;20191;-73
2023/05/17 00:42:00;;;;;;;5.13;2.10;;;9.60;1.00;;;;;;4977555;28;20203;-72
2023/05/17 00:44:25;;;;;;;5.37;2.33;;;9.60;1.00;;;;;;4978446;28;20242;-72
2023/05/17 00:46:51;;;;;;;3.67;2.13;;;9.60;1.00;;;;;;4982190;28;20494;-73
2023/05/17 00:49:16;;;;;;;4.97;2.00;;;9.50;1.00;;;;;;4977060;28;20187;-73
2023/05/17 00:51:43;;;;;;;4.20;2.07;;;9.50;1.00;;;;;;4987660;28;20191;-73
2023/05/17 00:54:09;;;;;;;5.27;2.10;;;9.50;1.00;;;;;;4986956;28;20179;-73
2023/05/17 00:56:35;;;;;;;8.07;2.47;;;9.50;1.00;;;;;;4979800;28;20449;-73
2023/05/17 00:59:03;;;;;;;5.20;2.80;;;9.50;1.00;;;;;;4981793;28;20183;-72
2023/05/17 01:01:29;;;;;;;6.87;2.23;;;9.50;1.00;;;;;;4980273;28;20677;-73
2023/05/17 01:03:55;;;;;;;10.50;2.80;;;9.50;1.00;;;;;;4972558;28;20443;-73
2023/05/17 01:06:21;;;;;;;6.97;2.30;;;9.50;1.00;;;;;;4978834;28;20658;-73
2023/05/17 01:08:46;;;;;;;4.90;2.23;;;9.50;1.00;;;;;;4978299;28;20465;-73
2023/05/17 01:11:35;;;;;;;4.10;2.33;;;9.50;1.00;;;;;;4975632;28;20917;-73
2023/05/17 01:14:16;;;;;;;3.90;2.47;;;9.50;1.00;;;;;;4976366;28;20187;-72
2023/05/17 01:16:49;;;;;;;5.70;2.30;;;9.40;1.00;;;;;;4978347;28;20857;-73
2023/05/17 01:19:25;;;;;;;11.80;2.70;;;9.50;1.00;;;;;;4977669;28;20530;-73
2023/05/17 01:22:06;;;;;;;6.20;2.50;;;9.50;1.00;;;;;;4983504;28;20466;-72
2023/05/17 01:24:50;;;;;;;7.70;2.60;;;9.30;1.00;;;;;;4978213;28;20488;-72
2023/05/17 01:27:16;;;;;;;5.33;2.57;;;9.40;1.00;;;;;;4985457;28;20816;-72
2023/05/17 01:29:44;;;;;;;6.13;2.30;;;9.30;1.00;;;;;;4973177;28;20810;-72
2023/05/17 01:32:11;;;;;;;4.00;2.30;;;9.30;1.00;;;;;;4981397;28;20521;-72
2023/05/17 01:34:37;;;;;;;2.57;2.10;;;9.30;1.00;;;;;;4984812;28;20489;-73
2023/05/17 01:37:03;;;;;;;5.30;2.50;;;9.20;1.00;;;;;;4970812;28;20489;-72
2023/05/17 01:39:28;;;;;;;5.77;2.20;;;9.20;1.00;;;;;;4974952;28;20316;-72
2023/05/17 01:42:29;;;;;;;6.50;2.50;;;9.20;1.00;;;;;;4983352;28;20306;-73
2023/05/17 01:45:04;;;;;;;4.83;2.47;;;9.20;1.00;;;;;;4975077;28;20194;-72
2023/05/17 01:48:10;;;;;;;13.13;3.03;;;9.10;1.00;;;;;;4979996;28;20467;-73
2023/05/17 01:50:38;;;;;;;3.70;2.17;;;9.10;1.00;;;;;;4979424;28;20438;-73
2023/05/17 01:53:09;;;;;;;7.77;2.33;;;9.10;1.00;;;;;;4977742;28;20446;-72
2023/05/17 01:55:49;;;;;;;4.33;2.20;;;9.10;1.00;;;;;;4984538;28;20486;-73
2023/05/17 01:58:16;;;;;;;8.17;3.00;;;9.10;1.00;;;;;;4980787;28;20458;-73
2023/05/17 02:00:45;;;;;;;4.77;2.73;;;9.10;1.00;;;;;;4981039;28;20476;-73
2023/05/17 02:03:15;;;;;;;7.53;2.13;;;9.10;1.00;;;;;;4973534;28;21210;-71
2023/05/17 02:05:41;;;;;;;6.20;2.53;;;9.10;1.00;;;;;;4985817;28;20521;-73
2023/05/17 02:08:06;;;;;;;6.77;2.47;;;9.10;1.00;;;;;;4980994;28;21080;-73
2023/05/17 02:10:32;;;;;;;5.90;3.30;;;9.00;1.00;;;;;;4983643;28;20183;-73
2023/05/17 02:12:57;;;;;;;3.90;2.00;;;9.00;1.00;;;;;;4978725;28;20523;-71
2023/05/17 02:15:23;;;;;;;5.67;2.40;;;9.10;1.00;;;;;;4977983;28;20527;-72
2023/05/17 02:17:48;;;;;;;5.77;2.40;;;9.10;1.00;;;;;;4986366;28;20195;-72
2023/05/17 02:20:14;;;;;;;5.30;2.50;;;9.10;1.00;;;;;;4974222;28;20186;-72
2023/05/17 02:22:39;;;;;;;4.43;2.43;;;9.10;1.00;;;;;;4978764;28;20203;-73
2023/05/17 02:25:06;;;;;;;3.10;2.00;;;9.10;1.00;;;;;;4988260;28;20183;-73
2023/05/17 02:27:32;;;;;;;3.50;2.63;;;9.10;1.00;;;;;;4977453;28;20260;-73
2023/05/17 02:29:57;;;;;;;7.70;2.47;;;9.20;1.00;;;;;;4969577;28;20522;-73
2023/05/17 02:32:23;;;;;;;7.17;2.73;;;9.20;1.00;;;;;;4977765;28;20557;-73
2023/05/17 02:34:49;;;;;;;5.80;2.50;;;9.10;1.00;;;;;;4981854;28;20187;-73
2023/05/17 02:37:14;;;;;;;7.27;3.00;;;9.10;1.00;;;;;;4976884;28;20208;-72
2023/05/17 02:39:40;;;;;;;9.00;2.90;;;9.00;1.00;;;;;;4984621;28;20653;-73
2023/05/17 02:42:05;;;;;;;6.87;3.10;;;9.10;1.00;;;;;;4977543;28;20290;-72
2023/05/17 02:44:31;;;;;;;12.03;2.80;;;9.10;1.00;;;;;;4985175;28;20179;-71
2023/05/17 02:46:56;;;;;;;6.53;2.63;;;9.00;1.00;;;;;;4978400;28;20217;-73
2023/05/17 02:49:22;;;;;;;8.30;2.90;;;9.00;1.00;;;;;;4971639;28;20210;-73
2023/05/17 02:51:47;;;;;;;4.13;3.07;;;8.90;1.00;;;;;;4976573;28;20179;-73
2023/05/17 02:54:13;;;;;;;4.07;2.40;;;9.10;1.00;;;;;;4977000;28;20188;-72
2023/05/17 02:56:38;;;;;;;8.17;2.73;;;9.00;1.00;;;;;;4982232;28;20261;-72
2023/05/17 02:59:04;;;;;;;6.10;2.70;;;9.00;1.00;;;;;;4986072;28;20678;-73
2023/05/17 03:01:29;;;;;;;5.10;2.70;;;9.10;1.00;;;;;;4983140;28;20241;-72
2023/05/17 03:03:55;;;;;;;5.17;2.70;;;9.10;1.00;;;;;;4974036;28;20176;-72
2023/05/17 03:06:20;;;;;;;6.40;2.83;;;9.00;1.00;;;;;;4973232;28;20183;-72
2023/05/17 03:08:46;;;;;;;4.07;2.80;;;9.00;1.00;;;;;;4984484;28;20635;-73
2023/05/17 03:11:12;;;;;;;7.97;3.93;;;8.90;1.00;;;;;;4986528;28;20262;-73
2023/05/17 03:13:37;;;;;;;8.53;3.87;;;8.90;1.00;;;;;;4977836;28;20692;-72
2023/05/17 03:16:03;;;;;;;5.10;3.00;;;8.90;1.00;;;;;;4978187;28;20192;-73
2023/05/17 03:18:29;;;;;;;3.90;2.43;;;8.90;1.00;;;;;;4982318;28;20629;-72
2023/05/17 03:20:54;;;;;;;8.90;3.00;;;8.90;1.00;;;;;;4971443;28;20239;-72
2023/05/17 03:23:20;;;;;;;6.10;3.20;;;8.90;1.00;;;;;;4981468;28;20187;-73
2023/05/17 03:25:45;;;;;;;5.30;2.73;;;8.90;1.00;;;;;;4976223;28;20183;-74
2023/05/17 03:28:11;;;;;;;6.77;2.67;;;8.90;1.00;;;;;;4985945;28;20195;-72
2023/05/17 03:30:36;;;;;;;7.73;3.00;;;8.90;1.00;;;;;;4978833;28;20689;-74
2023/05/17 03:33:02;;;;;;;16.10;3.03;;;8.90;1.00;;;;;;4979911;28;20674;-72
2023/05/17 03:35:27;;;;;;;6.03;2.70;;;8.80;1.00;;;;;;4984134;28;20191;-73
2023/05/17 03:37:53;;;;;;;5.70;2.57;;;8.90;1.00;;;;;;4977241;28;20211;-72
2023/05/17 03:40:18;;;;;;;7.40;2.50;;;8.90;1.00;;;;;;4979436;28;20180;-73
2023/05/17 03:42:44;;;;;;;7.93;2.80;;;8.90;1.00;;;;;;4983593;28;20213;-72
2023/05/17 03:45:11;;;;;;;10.20;3.03;;;8.90;1.00;;;;;;4980389;28;20742;-72
2023/05/17 03:47:37;;;;;;;7.43;2.90;;;8.80;1.00;;;;;;4993220;28;20534;-73
2023/05/17 03:50:03;;;;;;;6.57;2.77;;;8.90;1.00;;;;;;4974649;28;20445;-73
2023/05/17 03:52:28;;;;;;;8.53;2.70;;;8.80;1.00;;;;;;4983406;28;20213;-73
2023/05/17 03:54:54;;;;;;;9.17;3.20;;;8.80;1.00;;;;;;4988056;28;20438;-72
2023/05/17 03:57:20;;;;;;;8.63;3.77;;;8.70;1.00;;;;;;4992388;28;20207;-73
2023/05/17 03:59:46;;;;;;;12.40;3.90;;;8.70;1.00;;;;;;4992577;28;20183;-73
2023/05/17 04:02:14;;;;;;;6.03;3.33;;;8.70;1.00;;;;;;4989428;28;20454;-72
2023/05/17 04:04:39;;;;;;;8.20;3.43;;;8.60;1.00;;;;;;4976439;28;20240;-73
2023/05/17 04:07:05;;;;;;;13.80;3.20;;;8.70;1.00;;;;;;4986482;28;20504;-73
2023/05/17 04:09:31;;;;;;;11.87;3.83;;;8.70;1.00;;;;;;4973505;28;20196;-74
2023/05/17 04:11:56;;;;;;;8.17;4.00;;;8.70;1.00;;;;;;4983467;28;20183;-73
2023/05/17 04:14:22;;;;;;;7.33;3.90;;;8.70;1.00;;;;;;4990822;28;20201;-73
2023/05/17 04:16:47;;;;;;;12.10;4.20;;;8.80;1.00;;;;;;4987505;28;20175;-72
2023/05/17 04:19:13;;;;;;;8.63;3.50;;;8.80;1.00;;;;;;4987614;28;20182;-71
2023/05/17 04:21:38;;;;;;;9.00;3.37;;;8.80;1.00;;;;;;4988008;28;20577;-72
2023/05/17 04:24:04;;;;;;;5.30;3.63;;;8.80;1.00;;;;;;4985011;28;20292;-72
2023/05/17 04:26:30;;;;;;;7.33;3.13;;;8.80;1.00;;;;;;4986307;28;20194;-73
2023/05/17 04:28:56;;;;;;;4.90;3.10;;;8.80;1.00;;;;;;4985067;28;20195;-71
2023/05/17 04:31:21;;;;;;;7.37;2.77;;;8.80;1.00;;;;;;4985774;28;20485;-73
2023/05/17 04:33:47;;;;;;;7.20;3.13;;;8.30;1.00;;;;;;4979479;28;20786;-73
2023/05/17 04:36:12;;;;;;;6.83;3.40;;;8.80;1.00;;;;;;4983648;28;20191;-73
2023/05/17 04:38:38;;;;;;;6.33;3.00;;;8.90;1.00;;;;;;4980983;28;20873;-73
2023/05/17 04:41:05;;;;;;;11.47;3.30;;;8.90;1.00;;;;;;4979121;28;20666;-73
2023/05/17 04:43:31;;;;;;;3.43;2.57;;;8.90;1.00;;;;;;4977137;28;20946;-72
2023/05/17 04:45:57;;;;;;;4.63;3.10;;;9.00;1.00;;;;;;4976097;28;20439;-72
2023/05/17 04:48:25;;;;;;;7.13;3.10;;;9.10;1.00;;;;;;4984873;28;20981;-72
2023/05/17 04:50:50;;;;;;;9.50;2.83;;;9.10;1.00;;;;;;4986441;28;20183;-72
2023/05/17 04:53:16;;;;;;;7.40;3.50;;;9.10;1.00;;;;;;4978792;28;20447;-72
2023/05/17 04:55:41;;;;;;;6.27;3.07;;;9.20;1.00;;;;;;4982065;28;20220;-73
2023/05/17 04:58:08;;;;;;;7.20;3.60;;;9.30;1.00;;;;;;4985018;28;20221;-71
2023/05/17 05:00:33;;;;;;;6.13;2.80;;;9.30;1.00;;;;;;4980673;28;20778;-73
2023/05/17 05:02:59;;;;;;;4.57;2.83;;;9.30;1.00;;;;;;4989004;28;20434;-73
2023/05/17 05:05:24;;;;;;;5.17;2.70;;;9.30;1.00;;;;;;4987665;28;20179;-72
2023/05/17 05:07:50;;;;;;;6.73;2.93;;;9.40;1.00;;;;;;4982973;28;20211;-73
2023/05/17 05:10:16;;;;;;;5.80;3.07;;;9.50;1.00;;;;;;4980658;28;20229;-72
2023/05/17 05:12:41;;;;;;;5.43;3.20;;;9.60;1.00;;;;;;4986426;28;20551;-73
2023/05/17 05:15:08;;;;;;;6.70;3.37;;;9.60;1.00;;;;;;4972987;28;20187;-73
2023/05/17 05:17:34;;;;;;;9.47;3.73;;;9.70;1.00;;;;;;4970800;28;22609;-72
2023/05/17 05:19:59;;;;;;;6.63;3.20;;;9.70;1.00;;;;;;4979186;28;20447;-73
2023/05/17 05:22:25;;;;;;;5.67;3.60;;;9.80;1.00;;;;;;4977394;28;20206;-72
2023/05/17 05:24:51;;;;;;;6.40;3.77;;;9.90;1.00;;;;;;4975148;28;20268;-73
2023/05/17 05:27:16;;;;;;;6.20;3.30;;;10.00;1.00;;;;;;4982482;28;20705;-73
2023/05/17 05:29:42;;;;;;;7.80;3.43;;;10.00;1.00;;;;;;4978234;28;20207;-73
2023/05/17 05:32:08;;;;;;;14.23;3.53;;;10.10;1.00;;;;;;4976038;28;20218;-73
2023/05/17 05:34:33;;;;;;;7.13;3.83;;;10.10;1.00;;;;;;4976862;28;20278;-72
2023/05/17 05:36:59;;;;;;;17.13;5.47;;;10.70;1.00;;;;;;4977611;28;20204;-73
2023/05/17 05:39:26;;;;;;;11.30;4.87;;;10.20;1.00;;;;;;4973920;28;20238;-72
2023/05/17 05:41:52;;;;;;;9.57;4.13;;;10.30;1.00;;;;;;4981422;28;20210;-72
2023/05/17 05:44:18;;;;;;;7.90;3.90;;;10.40;1.00;;;;;;4975627;28;20439;-72
2023/05/17 05:46:43;;;;;;;9.07;3.50;;;10.50;1.00;;;;;;4979712;28;20351;-72
2023/05/17 05:49:09;;;;;;;9.70;4.20;;;10.50;1.00;;;;;;4985095;28;20615;-73
2023/05/17 05:51:35;;;;;;;5.20;3.47;;;10.60;1.00;;;;;;4986631;28;20195;-73
2023/05/17 05:54:00;;;;;;;6.53;3.37;;;10.60;1.00;;;;;;4978927;28;20202;-72
2023/05/17 05:56:26;;;;;;;6.53;3.20;;;10.60;1.00;;;;;;4968025;28;20492;-73
2023/05/17 05:58:53;;;;;;;5.30;3.10;;;10.70;1.00;;;;;;4977805;28;20192;-73
2023/05/17 06:01:20;;;;;;;8.17;3.43;;;10.70;1.00;;;;;;4976629;28;20477;-72
2023/05/17 06:03:45;;;;;;;7.93;4.20;;;10.80;1.00;;;;;;4976040;28;20439;-71
2023/05/17 06:06:11;;;;;;;6.23;3.43;;;10.90;1.00;;;;;;4971443;28;20768;-72
2023/05/17 06:08:36;;;;;;;8.13;3.60;;;11.00;1.00;;;;;;4985857;28;20213;-73
2023/05/17 06:11:02;;;;;;;8.40;3.83;;;11.10;1.00;;;;;;4982284;28;20191;-72
2023/05/17 06:13:27;;;;;;;8.00;3.90;;;11.10;1.00;;;;;;4985933;28;20747;-72
2023/05/17 06:15:53;;;;;;;5.80;3.03;;;11.20;1.00;;;;;;4976876;28;20191;-72
2023/05/17 06:18:18;;;;;;;7.20;3.63;;;11.30;1.00;;;;;;4980235;28;20293;-73
2023/05/17 06:20:45;;;;;;;6.97;3.73;;;11.40;1.00;;;;;;4978368;28;20684;-72
2023/05/17 06:23:10;;;;;;;5.90;2.93;;;11.60;1.00;;;;;;4984304;28;20444;-73
2023/05/17 06:25:36;;;;;;;5.67;3.63;;;11.60;1.00;;;;;;4980164;28;21041;-72
2023/05/17 06:28:02;;;;;;;7.50;3.60;;;11.90;1.00;;;;;;4988476;28;20305;-73
2023/05/17 06:30:28;;;;;;;7.33;4.10;;;12.00;1.00;;;;;;4980347;28;20250;-74
2023/05/17 06:32:54;;;;;;;9.10;4.27;;;12.20;1.00;;;;;;4989684;28;20426;-74
2023/05/17 06:35:20;;;;;;;8.80;3.43;;;12.30;1.00;;;;;;4988477;28;20430;-74
2023/05/17 06:37:45;;;;;;;7.83;3.33;;;12.50;1.00;;;;;;4990521;28;20213;-74
2023/05/17 06:40:11;;;;;;;6.47;3.90;;;12.50;1.00;;;;;;4982938;28;20187;-74
2023/05/17 06:42:36;;;;;;;10.10;4.00;;;12.60;1.00;;;;;;4989650;28;20217;-73
2023/05/17 06:45:02;;;;;;;8.33;3.40;;;12.70;1.00;;;;;;4986711;28;20588;-74
2023/05/17 06:47:28;;;;;;;6.00;3.17;;;12.80;1.00;;;;;;4978972;28;20210;-74
2023/05/17 06:49:54;;;;;;;11.07;3.70;;;13.00;1.00;;;;;;4984418;28;20545;-74
2023/05/17 06:52:20;;;;;;;7.23;3.50;;;13.20;1.00;;;;;;4981223;28;20434;-74
2023/05/17 06:54:46;;;;;;;6.27;3.60;;;;;;;;;;4974714;28;20270;-74
2023/05/17 06:57:11;;;;;;;7.97;3.63;;;13.20;1.00;;;;;;4982484;28;20295;-75
2023/05/17 06:59:37;;;;;;;8.37;3.80;;;13.30;1.00;;;;;;4989934;28;20183;-73
2023/05/17 07:02:02;;;;;;;7.57;3.47;;;13.40;1.00;;;;;;4976418;28;20214;-74
2023/05/17 07:04:28;;;;;;;5.93;3.60;;;13.60;1.00;;;;;;4978303;28;20238;-74
2023/05/17 07:06:54;;;;;;;8.20;3.40;;;13.70;1.00;;;;;;4978108;28;20569;-73
2023/05/17 07:09:20;;;;;;;8.80;3.70;;;13.90;1.00;;;;;;4983693;28;20329;-72
2023/05/17 07:11:46;;;;;;;8.20;4.20;;;14.10;1.00;;;;;;4986292;28;20191;-72
2023/05/17 07:14:12;;;;;;;8.40;3.60;;;14.30;1.00;;;;;;4981196;28;20431;-72
2023/05/17 07:16:37;;;;;;;9.37;3.20;;;14.80;1.00;;;;;;4990987;28;20532;-73
2023/05/17 07:19:03;;;;;;;9.47;3.50;;;14.70;1.00;;;;;;4998559;28;20201;-73
2023/05/17 07:21:28;;;;;;;6.57;3.37;;;15.10;1.00;;;;;;4993301;28;20269;-70
2023/05/17 07:23:54;;;;;;;9.07;3.73;;;15.20;1.00;;;;;;4983667;28;20678;-70
2023/05/17 07:26:20;;;;;;;10.70;3.20;;;15.40;1.00;;;;;;4978353;28;20195;-70
2023/05/17 07:28:46;;;;;;;6.57;3.37;;;16.00;1.00;;;;;;4981511;28;20198;-71
2023/05/17 07:31:12;;;;;;;8.90;3.50;;;15.60;1.00;;;;;;4983100;28;20234;-69
2023/05/17 07:33:37;;;;;;;12.80;3.67;;;15.40;1.00;;;;;;4977367;28;20442;-70
2023/05/17 07:36:04;;;;;;;7.70;3.57;;;15.30;1.00;;;;;;4982734;28;20245;-73
2023/05/17 07:38:30;;;;;;;7.83;3.50;;;15.20;1.00;;;;;;4984837;28;20199;-70
2023/05/17 07:40:55;;;;;;;6.70;3.57;;;15.10;1.00;;;;;;4976576;28;20471;-71
2023/05/17 07:43:21;;;;;;;14.13;4.27;;;15.20;1.00;;;;;;4980716;28;20253;-75
2023/05/17 07:45:46;;;;;;;6.50;4.00;;;15.30;1.00;;;;;;4976125;28;20295;-70
2023/05/17 07:48:12;;;;;;;8.50;3.63;;;15.40;1.00;;;;;;4979983;28;20218;-69
2023/05/17 07:50:38;;;;;;;5.90;3.40;;;15.60;1.00;;;;;;4977543;28;20180;-70
2023/05/17 07:53:04;;;;;;;7.33;3.13;;;15.80;1.00;;;;;;4976901;28;20597;-70
2023/05/17 07:55:29;;;;;;;11.30;5.03;;;16.20;1.00;;;;;;4981167;28;20210;-71
2023/05/17 07:57:55;;;;;;;11.10;5.57;;;16.60;1.00;;;;;;4971683;28;20199;-70
2023/05/17 08:00:21;;;;;;;10.07;5.03;;;16.50;1.00;;;;;;4985406;28;20187;-70
2023/05/17 08:02:47;;;;;;;14.33;5.30;;;15.80;1.00;;;;;;5002217;23;20230;-71
2023/05/17 08:05:12;;;;;;;13.03;4.50;;;15.70;1.00;;;;;;5004667;28;20816;-71
2023/05/17 08:07:38;;;;;;;8.37;4.50;;;15.30;1.00;;;;;;4997485;28;20241;-73
2023/05/17 08:10:04;;;;;;;18.00;5.50;;;15.10;1.00;;;;;;5003279;28;20731;-71
2023/05/17 08:12:29;;;;;;;12.93;5.63;;;15.10;1.00;;;;;;5004550;28;20273;-71
2023/05/17 08:14:55;;;;;;;10.60;5.10;;;15.20;1.00;;;;;;5005103;28;20625;-71
2023/05/17 08:17:21;;;;;;;9.47;4.00;;;15.20;1.00;;;;;;5006656;28;20218;-71
2023/05/17 08:19:46;;;;;;;11.70;4.07;;;15.20;1.00;;;;;;5004772;28;20270;-71
2023/05/17 08:22:12;;;;;;;9.60;4.47;;;15.20;1.00;;;;;;5002119;28;20210;-72
2023/05/17 08:24:38;;;;;;;8.63;3.63;;;15.30;1.00;;;;;;5008577;28;20604;-73
2023/05/17 08:27:03;;;;;;;7.90;3.67;;;15.30;1.00;;;;;;5009817;28;20289;-71
2023/05/17 08:29:29;;;;;;;7.37;3.93;;;15.30;1.00;;;;;;5009295;28;20225;-72
2023/05/17 08:31:55;;;;;;;11.57;4.97;;;15.40;1.00;;;;;;5005152;28;20237;-74
2023/05/17 08:34:21;;;;;;;11.67;6.00;;;15.50;1.00;;;;;;5008594;28;20248;-72
2023/05/17 08:36:46;;;;;;;10.50;3.97;;;15.50;1.00;;;;;;5002555;28;20236;-72
2023/05/17 08:39:12;;;;;;;8.10;5.07;;;15.40;1.00;;;;;;5008564;28;20441;-73
2023/05/17 08:41:38;;;;;;;7.90;4.17;;;15.40;1.00;;;;;;5000794;28;20206;-71
2023/05/17 08:44:05;;;;;;;8.53;4.07;;;15.30;1.00;;;;;;5001772;28;20253;-71
2023/05/17 08:46:32;;;;;;;7.50;4.67;;;15.30;1.00;;;;;;5003987;28;21594;-72
2023/05/17 08:49:00;;;;;;;9.33;4.40;;;15.50;1.00;;;;;;5003303;28;20442;-74
2023/05/17 08:51:27;;;;;;;10.73;5.30;;;15.80;1.00;;;;;;4998013;28;20457;-72
2023/05/17 08:53:53;;;;;;;10.60;5.30;;;16.10;1.00;;;;;;5000494;28;20762;-71
2023/05/17 08:56:21;;;;;;;6.80;4.00;;;16.30;1.00;;;;;;5005785;28;20452;-73
2023/05/17 08:58:51;;;;;;;6.20;3.70;;;16.30;1.00;;;;;;5008306;28;20511;-72
2023/05/17 09:01:17;;;;;;;10.10;3.77;;;16.50;1.00;;;;;;5002208;28;20496;-72
2023/05/17 09:03:47;;;;;;;7.70;4.53;;;16.70;1.00;;;;;;5001730;28;20900;-73
2023/05/17 09:06:21;;;;;;;7.33;4.30;;;16.80;1.00;;;;;;5004159;28;20453;-72
2023/05/17 09:08:49;;;;;;;7.83;3.90;;;16.90;1.00;;;;;;5007117;28;20460;-73
2023/05/17 09:11:25;;;;;;;8.80;4.47;;;16.90;1.00;;;;;;5004058;28;20480;-73
2023/05/17 09:13:50;;;;;;;8.53;4.27;;;17.10;1.00;;;;;;5001454;28;20448;-73
2023/05/17 09:16:16;;;;;;;9.50;3.83;;;17.10;1.00;;;;;;5004314;28;20433;-72
2023/05/17 09:18:42;;;;;;;9.63;3.73;;;17.00;1.00;;;;;;5005416;28;20198;-72
2023/05/17 09:21:08;;;;;;;7.43;3.43;;;17.00;1.00;;;;;;5007120;28;20206;-73
2023/05/17 09:23:37;;;;;;;10.20;4.43;;;17.00;1.00;;;;;;5006742;28;20557;-73
2023/05/17 09:26:05;;;;;;;8.87;4.23;;;17.10;1.00;;;;;;5000683;28;20442;-73
2023/05/17 09:28:39;;;;;;;9.67;3.93;;;17.30;1.00;;;;;;5002517;28;20607;-73
2023/05/17 09:31:07;;;;;;;5.30;3.97;;;17.30;1.00;;;;;;5006379;28;20981;-74
2023/05/17 09:33:33;;;;;;;5.97;3.20;;;17.70;1.00;;;;;;4994527;28;20450;-73
2023/05/17 09:36:00;;;;;;;6.43;3.33;;;17.80;1.00;;;;;;5004826;28;20453;-73
2023/05/17 09:38:26;;;;;;;7.80;3.50;;;18.00;1.00;;;;;;5001634;28;20503;-73
2023/05/17 09:40:52;;;;;;;6.57;3.30;;;18.20;1.00;;;;;;5001106;28;20600;-73
2023/05/17 09:43:25;;;;;;;5.87;3.40;;;18.30;1.00;;;;;;5004052;28;20190;-72
2023/05/17 09:45:56;;;;;;;8.23;4.00;;;18.30;1.00;;;;;;4996109;28;20673;-73
2023/05/17 09:48:22;;;;;;;8.10;3.30;;;18.30;1.00;;;;;;5004330;28;20832;-73
2023/05/17 09:50:49;;;;;;;6.50;3.47;;;18.60;1.00;;;;;;5002584;28;20434;-73
2023/05/17 09:53:22;;;;;;;8.73;3.60;;;19.00;1.00;;;;;;5006566;28;20433;-73
2023/05/17 09:55:47;;;;;;;6.27;3.53;;;19.10;1.00;;;;;;5003182;28;20425;-73
2023/05/17 09:58:13;;;;;;;5.90;3.33;;;19.30;1.00;;;;;;4994207;28;20460;-73
2023/05/17 10:00:40;;;;;;;5.57;3.17;;;19.30;1.00;;;;;;5003346;28;20269;-72
2023/05/17 10:03:09;;;;;;;5.47;3.10;;;19.10;1.00;;;;;;5007545;28;20298;-72
2023/05/17 10:05:35;;;;;;;6.97;3.13;;;19.30;1.00;;;;;;5003149;28;20816;-71
2023/05/17 10:08:03;;;;;;;6.97;3.53;;;19.60;1.00;;;;;;5006260;28;20465;-73
2023/05/17 10:10:29;;;;;;;5.80;3.30;;;19.90;1.00;;;;;;5001329;28;20793;-72
2023/05/17 10:12:56;;;;;;;8.50;3.60;;;19.90;1.00;;;;;;5001977;28;20440;-73
2023/05/17 10:15:22;;;;;;;5.47;3.40;;;19.80;1.00;;;;;;4994391;28;20241;-73
2023/05/17 10:17:48;;;;;;;5.00;3.50;;;19.70;1.00;;;;;;5018843;28;20512;-72
2023/05/17 10:20:16;;;;;;;6.80;3.30;;;19.60;1.00;;;;;;4998530;28;20477;-72
2023/05/17 10:22:42;;;;;;;4.87;3.07;;;19.40;1.00;;;;;;5000815;28;20459;-73
2023/05/17 10:25:08;;;;;;;8.10;3.77;;;19.30;1.00;;;;;;5004222;28;20468;-72
2023/05/17 10:27:34;;;;;;;5.50;3.13;;;19.30;1.00;;;;;;5002330;28;20349;-71
2023/05/17 10:30:00;;;;;;;6.67;3.27;;;19.40;1.00;;;;;;4999836;28;21033;-72
2023/05/17 10:32:27;;;;;;;6.07;3.70;;;19.60;1.00;;;;;;4997035;28;20198;-72
2023/05/17 10:34:53;;;;;;;6.13;3.93;;;19.70;1.00;;;;;;5002542;28;20206;-71
2023/05/17 10:37:21;;;;;;;6.70;3.50;;;18.10;1.00;;;;;;5002598;28;20974;-72
2023/05/17 10:39:50;;;;;;;5.93;3.30;;;19.50;1.00;;;;;;5002914;28;20462;-71
2023/05/17 10:42:17;;;;;;;5.43;3.07;;;19.30;1.00;;;;;;5005561;28;20479;-72
2023/05/17 10:44:43;;;;;;;6.37;3.83;;;19.10;1.00;;;;;;5003354;28;20437;-72
2023/05/17 10:47:10;;;;;;;5.00;3.03;;;19.00;1.00;;;;;;5003017;28;20827;-73
2023/05/17 10:49:38;;;;;;;7.67;3.33;;;19.00;1.00;;;;;;5001095;28;20178;-71
2023/05/17 10:52:15;;;;;;;9.30;3.77;;;18.90;1.00;;;;;;5002976;28;20464;-71
2023/05/17 10:54:42;;;;;;;7.10;3.53;;;18.60;1.00;;;;;;5001856;28;20445;-72
2023/05/17 10:57:17;;;;;;;7.07;3.23;;;18.30;1.00;;;;;;5003274;28;20891;-72
2023/05/17 10:59:57;;;;;;;6.37;3.67;;;18.30;1.00;;;;;;4997187;28;20440;-73
2023/05/17 11:02:23;;;;;;;8.60;3.70;;;18.20;1.00;;;;;;5002344;28;21041;-73
2023/05/17 11:04:54;;;;;;;8.00;3.57;;;18.10;1.00;;;;;;4999424;28;20948;-73
2023/05/17 11:07:23;;;;;;;8.20;3.73;;;18.10;1.00;;;;;;5006718;28;22041;-73
2023/05/17 11:09:55;;;;;;;7.33;3.53;;;18.10;1.00;;;;;;5005406;28;20433;-72
2023/05/17 11:12:54;;;;;;;6.97;3.63;;;18.10;1.00;;;;;;5001211;28;20441;-73
2023/05/17 11:15:26;;;;;;;5.43;3.70;;;18.20;1.00;;;;;;5003821;28;20893;-73
2023/05/17 11:17:52;;;;;;;8.07;3.50;;;18.30;1.00;;;;;;4999097;28;20462;-72
2023/05/17 11:20:24;;;;;;;7.07;3.83;;;18.40;1.00;;;;;;5003896;28;20550;-72
2023/05/17 11:23:06;;;;;;;8.20;3.20;;;18.50;1.00;;;;;;4999389;28;20552;-73
2023/05/17 11:25:36;;;;;;;8.03;3.60;;;18.60;1.00;;;;;;5004356;28;20441;-73
2023/05/17 11:28:16;;;;;;;11.23;3.93;;;18.80;1.00;;;;;;4997890;28;20473;-73
2023/05/17 11:30:46;;;;;;;7.23;3.90;;;19.00;1.00;;;;;;5005487;28;20508;-70
2023/05/17 11:33:12;;;;;;;8.93;3.30;;;19.00;1.00;;;;;;5003244;28;20870;-72
2023/05/17 11:35:38;;;;;;;5.27;3.50;;;18.90;1.00;;;;;;5005999;28;20516;-72
2023/05/17 11:38:18;;;;;;;7.97;3.37;;;18.80;1.00;;;;;;5001178;28;20684;-72
2023/05/17 11:40:46;;;;;;;6.43;3.53;;;18.80;1.00;;;;;;5002160;28;20430;-73
2023/05/17 11:43:16;;;;;;;7.87;3.80;;;18.80;1.00;;;;;;5005320;28;20484;-73
2023/05/17 11:45:49;;;;;;;11.27;4.37;;;18.70;1.00;;;;;;5004222;28;20460;-73
2023/05/17 11:48:17;;;;;;;8.10;4.00;;;18.80;1.00;;;;;;5006033;28;20457;-73
2023/05/17 11:50:45;;;;;;;13.07;7.10;;;18.90;1.00;;;;;;4998399;28;20853;-72
2023/05/17 11:53:12;;;;;;;6.30;3.80;;;18.80;1.00;;;;;;5001607;28;20435;-73
2023/05/17 11:55:40;;;;;;;6.70;4.30;;;19.00;1.00;;;;;;5009225;28;20433;-73
2023/05/17 11:58:07;;;;;;;8.70;3.93;;;19.40;1.00;;;;;;5002928;28;20461;-73
2023/05/17 12:00:33;;;;;;;8.17;3.80;;;19.50;1.00;;;;;;4995344;28;20967;-73
2023/05/17 12:03:17;;;;;;;13.70;5.20;;;19.50;1.00;;;;;;5006310;28;20468;-73
2023/05/17 12:05:43;;;;;;;6.77;3.67;;;19.80;1.00;;;;;;5008083;28;20205;-73
2023/05/17 12:08:09;;;;;;;8.93;4.10;;;20.00;1.00;;;;;;5002257;28;20995;-72
2023/05/17 12:10:34;;;;;;;7.43;4.10;;;20.30;1.00;;;;;;5003859;28;20433;-73
2023/05/17 12:13:00;;;;;;;9.53;4.37;;;22.10;1.00;;;;;;5003709;28;20555;-73
2023/05/17 12:15:27;;;;;;;13.37;4.10;;;23.90;1.00;;;;;;5007825;28;20198;-73
2023/05/17 12:17:54;;;;;;;7.70;3.90;;;25.30;1.00;;;;;;5003671;28;20296;-73
2023/05/17 12:20:20;;;;;;;9.50;4.20;;;26.10;1.00;;;;;;5000271;28;20445;-72
2023/05/17 12:22:55;;;;;;;9.07;4.23;;;25.30;1.00;;;;;;5009040;28;20479;-73
2023/05/17 12:25:24;;;;;;;6.43;3.53;;;24.30;1.00;;;;;;5007819;28;20251;-73
2023/05/17 12:27:50;;;;;;;6.33;3.60;;;23.60;1.00;;;;;;5007610;28;20463;-72
2023/05/17 12:30:16;;;;;;;6.43;3.87;;;23.00;1.00;;;;;;5008206;28;20970;-72
2023/05/17 12:32:43;;;;;;;5.40;3.50;;;22.30;1.00;;;;;;4996876;28;20445;-72
2023/05/17 12:35:09;;;;;;;12.87;6.20;;;22.00;1.00;;;;;;4996337;28;20520;-74
2023/05/17 12:37:35;;;;;;;12.77;4.93;;;22.30;1.00;;;;;;5004394;28;20465;-73
2023/05/17 12:40:03;;;;;;;6.70;3.80;;;22.40;1.00;;;;;;5003250;28;20487;-74
2023/05/17 12:42:30;;;;;;;8.80;4.60;;;22.50;1.00;;;;;;5006648;28;20202;-73
2023/05/17 12:44:57;;;;;;;9.10;4.10;;;23.30;1.00;;;;;;5009317;28;20524;-74
2023/05/17 12:47:29;;;;;;;9.37;4.40;;;23.70;1.00;;;;;;5004236;28;20854;-73
2023/05/17 12:49:54;;;;;;;5.83;3.73;;;23.80;1.00;;;;;;5009208;28;20473;-73
2023/05/17 12:52:20;;;;;;;6.43;4.07;;;25.40;1.00;;;;;;5007548;28;20475;-73
2023/05/17 12:54:46;;;;;;;8.00;4.63;;;25.50;1.00;;;;;;5024063;28;20225;-74
2023/05/17 12:57:14;;;;;;;9.93;4.57;;;24.70;1.00;;;;;;5008130;28;20209;-74
2023/05/17 12:59:51;;;;;;;7.33;3.77;;;23.90;1.00;;;;;;5003913;28;20181;-73